PKMJ

Marshall Islands International Airport

Majuro Atoll, , Marshall Islands
PKMJ 210313Z 2103/2124 VRB06KT P6SM FEW015 SCT050
Issued Valid From Valid To
Aug-21 @ 03:13 UTC
(14 hours ago)
Aug-21 @ 03:00 UTC
(15 hours ago)
Aug-22 @ 00:00 UTC
(in 6 hours)
Aug-21 @ 03:00 to Aug-22 @ 00:00
PKMJ 210313Z 2103/2124 VRB06KT P6SM FEW015 SCT050
Wind Visibility Clouds
Variable at 6 knots 10,000+ meters
  • Few at 1,500' AGL
  • Scattered at 5,000' AGL
PKMJ 210313Z 2103/2124 VRB06KT P6SM FEW015 SCT050
Issued Aug-21 @ 03:13 UTC
(14 hours ago)
Valid From Aug-21 @ 03:00 UTC
(15 hours ago)
Valid To Aug-22 @ 00:00 UTC
(in 6 hours)
Aug-21 @ 03:00 - Aug-22 @ 00:00
Wind Visibility
Variable at 6 knots 10,000+ meters
Clouds
  • Few at 1,500' AGL
  • Scattered at 5,000' AGL